Terminal Aerodrome Forecast
Issued by NWS

Home | Current Version | Previous Version | Text Only | Print | Product List | Glossary On
Versions: 1 2 3 4 5 6 7 8 9 10 11 12 13 14 15 16 17 18 19 20 21
000
FTUS43 KAPX 242019 AAA
TAFTVC
TAF AMD
KTVC 242019Z 2420/2518 29014G19KT P6SM VCSH BKN050
      TEMPO 2420/2422 4SM -SHRA SCT025 OVC040
     FM242300 27009KT P6SM BKN040
     FM250300 VRB03KT P6SM VCSH BKN025
     FM251700 31007KT P6SM VCSH BKN035=

USA.gov is the U.S. government's official web portal to all federal, state and local government web resources and services.